| time (UTC) | temp C | wind direction | speed KPH | gust KPH | rain 1hr cm | rain 24hr cm | rain mn cm | humidity % | barometer mb |
| 20260507063517 | 1 | 113 | 1.6 | 6.4 | 0.00 | 1.27 | 0.00 | 78 | 1021.9 |
| 20260507062516 | 1 | 23 | 4.8 | 12.9 | 0.00 | 1.27 | 0.00 | 80 | 1022.0 |
| 20260507061516 | 0 | 293 | 4.8 | 9.7 | 0.00 | 1.27 | 0.00 | 76 | 1021.5 |
| 20260507060516 | 0 | 180 | 1.6 | 4.8 | 0.00 | 1.27 | 0.00 | 82 | 1021.3 |
| 20260507055516 | 0 | 180 | 3.2 | 9.7 | 0.00 | 1.27 | 1.27 | 82 | 1020.9 |
| 20260507054516 | 0 | 158 | 3.2 | 11.3 | 0.00 | 1.27 | 1.27 | 85 | 1020.9 |
| 20260507053516 | 0 | 135 | 3.2 | 8.0 | 0.00 | 1.27 | 1.27 | 86 | 1021.0 |
| 20260507052516 | -1 | 135 | 3.2 | 6.4 | 0.00 | 1.27 | 1.27 | 89 | 1021.1 |
| 20260507051516 | -1 | 135 | 3.2 | 6.4 | 0.00 | 1.27 | 1.27 | 91 | 1021.1 |
| 20260507050516 | -1 | 68 | 3.2 | 4.8 | 0.00 | 1.27 | 1.27 | 92 | 1020.6 |
| 20260507045516 | -1 | 68 | 1.6 | 4.8 | 0.00 | 1.27 | 1.27 | 93 | 1020.6 |
| 20260507044516 | -1 | 68 | 1.6 | 3.2 | 0.00 | 1.27 | 1.27 | 93 | 1020.7 |
| 20260507043516 | -1 | 0.0 | 3.2 | 0.00 | 1.27 | 1.27 | 93 | 1020.6 | |
| 20260507042516 | -1 | 68 | 3.2 | 4.8 | 0.00 | 1.27 | 1.27 | 93 | 1020.7 |
| 20260507041516 | -1 | 135 | 3.2 | 8.0 | 0.00 | 1.27 | 1.27 | 93 | 1020.6 |
| 20260507040516 | -1 | 135 | 1.6 | 3.2 | 0.00 | 1.27 | 1.27 | 94 | 1020.5 |
| 20260507035515 | -1 | 135 | 1.6 | 6.4 | 0.00 | 1.27 | 1.27 | 93 | 1020.4 |
| 20260507034536 | -1 | 135 | 1.6 | 4.8 | 0.00 | 1.27 | 1.27 | 93 | 1020.4 |
| 20260507033516 | -1 | 135 | 1.6 | 6.4 | 0.00 | 1.27 | 1.27 | 93 | 1020.4 |
| 20260507032516 | -1 | 135 | 1.6 | 3.2 | 0.00 | 1.27 | 1.27 | 93 | 1020.4 |
| 20260507031516 | -1 | 0.0 | 3.2 | 0.00 | 1.27 | 1.27 | 93 | 1020.2 | |
| 20260507030515 | -1 | 0.0 | 0.0 | 0.00 | 1.27 | 1.27 | 92 | 1020.3 | |
| 20260507025516 | -1 | 0.0 | 0.0 | 0.00 | 1.27 | 1.27 | 92 | 1020.1 | |
| 20260507024515 | -1 | 0.0 | 0.0 | 0.00 | 1.27 | 1.27 | 92 | 1020.1 | |
| 20260507023516 | 0 | 0.0 | 0.0 | 0.00 | 1.27 | 1.27 | 92 | 1020.0 | |
| 20260507022516 | 0 | 0.0 | 0.0 | 0.00 | 1.30 | 1.27 | 91 | 1019.9 | |
| 20260507021515 | 0 | 0.0 | 0.0 | 0.00 | 1.30 | 1.27 | 91 | 1019.8 | |
| 20260507020516 | 0 | 0.0 | 0.0 | 0.00 | 1.30 | 1.27 | 91 | 1019.7 | |
| 20260507015515 | 0 | 0.0 | 0.0 | 0.03 | 1.30 | 1.27 | 90 | 1019.8 | |
| 20260507014516 | 0 | 0.0 | 0.0 | 0.03 | 1.30 | 1.27 | 89 | 1020.3 | |
| 20260507013515 | 0 | 0.0 | 0.0 | 0.03 | 1.30 | 1.27 | 89 | 1020.4 | |
| 20260507012516 | 0 | 0.0 | 0.0 | 0.03 | 1.30 | 1.27 | 88 | 1020.5 | |
| 20260507011516 | 0 | 0.0 | 0.0 | 0.05 | 1.30 | 1.27 | 88 | 1020.6 | |
| 20260507010553 | 1 | 0.0 | 0.0 | 0.05 | 1.30 | 1.27 | 88 | 1021.2 | |
| 20260507005536 | 0 | 0.0 | 4.8 | 0.05 | 1.27 | 1.24 | 87 | 1020.9 | |
| 20260507004515 | 0 | 0.0 | 3.2 | 0.05 | 1.27 | 1.24 | 86 | 1020.8 | |
| 20260507003516 | 1 | 0.0 | 1.6 | 0.08 | 1.27 | 1.24 | 87 | 1020.8 | |
| 20260507002515 | 1 | 0.0 | 3.2 | 0.10 | 1.27 | 1.24 | 86 | 1021.4 | |
| 20260507001518 | 1 | 0.0 | 0.0 | 0.10 | 1.24 | 1.22 | 86 | 1021.2 | |
| 20260507000517 | 1 | 0.0 | 4.8 | 0.13 | 1.24 | 1.22 | 86 | 1021.4 | |
| 20260506235518 | 1 | 135 | 1.6 | 6.4 | 0.13 | 1.22 | 1.19 | 86 | 1021.4 |
| 20260506234517 | 1 | 135 | 3.2 | 6.4 | 0.15 | 1.24 | 1.19 | 86 | 1020.8 |
| 20260506233518 | 1 | 113 | 3.2 | 6.4 | 0.15 | 1.22 | 1.17 | 86 | 1020.8 |
| 20260506232518 | 1 | 113 | 1.6 | 6.4 | 0.15 | 1.19 | 1.14 | 86 | 1020.8 |
| 20260506231517 | 1 | 113 | 3.2 | 12.9 | 0.15 | 1.17 | 1.12 | 87 | 1020.9 |
| 20260506230517 | 0 | 113 | 1.6 | 8.0 | 0.15 | 1.14 | 1.09 | 87 | 1020.9 |
| 20260506225517 | 0 | 113 | 4.8 | 6.4 | 0.18 | 1.12 | 1.07 | 86 | 1020.9 |
| 20260506224517 | 0 | 113 | 3.2 | 9.7 | 0.18 | 1.09 | 1.04 | 87 | 1021.0 |
| 20260506223538 | 0 | 113 | 3.2 | 6.4 | 0.20 | 1.07 | 1.02 | 89 | 1021.2 |
| 20260506222517 | 0 | 113 | 4.8 | 11.3 | 0.20 | 1.07 | 0.99 | 90 | 1021.3 |
| 20260506221517 | 0 | 113 | 4.8 | 9.7 | 0.23 | 1.07 | 0.97 | 90 | 1021.4 |
| 20260506220519 | 0 | 135 | 3.2 | 6.4 | 0.28 | 1.07 | 0.94 | 90 | 1021.4 |
| 20260506215519 | 0 | 135 | 4.8 | 14.5 | 0.28 | 1.02 | 0.89 | 89 | 1021.5 |
| 20260506214517 | 1 | 90 | 3.2 | 9.7 | 0.30 | 1.04 | 0.86 | 91 | 1021.4 |
| 20260506213518 | 1 | 90 | 4.8 | 9.7 | 0.28 | 1.02 | 0.81 | 93 | 1021.5 |
| 20260506212517 | 0 | 90 | 4.8 | 11.3 | 0.30 | 1.02 | 0.79 | 91 | 1021.5 |
| 20260506211517 | 1 | 113 | 3.2 | 6.4 | 0.28 | 0.97 | 0.74 | 91 | 1022.0 |
| 20260506210517 | 1 | 68 | 1.6 | 8.0 | 0.23 | 0.91 | 0.66 | 93 | 1022.2 |
| 20260506205537 | 1 | 68 | 1.6 | 6.4 | 0.20 | 0.89 | 0.61 | 94 | 1022.3 |
| 20260506204517 | 1 | 45 | 3.2 | 6.4 | 0.18 | 0.86 | 0.56 | 94 | 1022.4 |
| 20260506203517 | 1 | 0.0 | 4.8 | 0.15 | 0.86 | 0.53 | 94 | 1023.0 | |
| 20260506202517 | 1 | 0.0 | 3.2 | 0.13 | 0.84 | 0.48 | 95 | 1023.1 | |
| 20260506201537 | 1 | 45 | 1.6 | 6.4 | 0.13 | 0.84 | 0.46 | 96 | 1022.7 |
| 20260506200518 | 1 | 45 | 1.6 | 4.8 | 0.13 | 0.84 | 0.43 | 96 | 1022.7 |
| 20260506195517 | 0 | 45 | 1.6 | 6.4 | 0.13 | 0.81 | 0.41 | 95 | 1022.7 |
| 20260506194517 | 0 | 45 | 1.6 | 6.4 | 0.15 | 0.79 | 0.38 | 95 | 1022.8 |
| 20260506193518 | 0 | 45 | 1.6 | 8.0 | 0.18 | 0.79 | 0.38 | 95 | 1022.8 |
| 20260506192515 | 0 | 23 | 3.2 | 12.9 | 0.18 | 0.76 | 0.36 | 95 | 1022.9 |
| 20260506191518 | 0 | 68 | 3.2 | 8.0 | 0.18 | 0.74 | 0.33 | 96 | 1022.5 |
| 20260506190517 | 0 | 68 | 3.2 | 9.7 | 0.18 | 0.71 | 0.30 | 95 | 1022.6 |
| 20260506185517 | 0 | 45 | 3.2 | 6.4 | 0.18 | 0.69 | 0.28 | 96 | 1022.6 |
| 20260506184517 | 0 | 45 | 8.0 | 16.1 | 0.15 | 0.64 | 0.23 | 95 | 1022.7 |
| 20260506183517 | 0 | 45 | 6.4 | 12.9 | 0.13 | 0.64 | 0.20 | 96 | 1022.8 |
| 20260506182517 | 0 | 45 | 8.0 | 14.5 | 0.13 | 0.61 | 0.18 | 96 | 1022.9 |
| 20260506181538 | 0 | 45 | 8.0 | 16.1 | 0.13 | 0.61 | 0.15 | 96 | 1022.8 |
| 20260506180517 | 0 | 23 | 6.4 | 22.5 | 0.10 | 0.58 | 0.13 | 96 | 1022.8 |
| 20260506175517 | 0 | 0 | 8.0 | 20.9 | 0.08 | 0.56 | 0.10 | 96 | 1022.7 |
| 20260506174558 | 0 | 0.0 | 0.0 | 0.05 | 0.56 | 0.08 | 95 | 1022.6 | |
| 20260506173517 | 0 | 0.0 | 0.0 | 0.05 | 0.56 | 0.08 | 96 | 1022.6 | |
| 20260506172517 | 0 | 0.0 | 0.0 | 0.03 | 0.53 | 0.05 | 95 | 1022.5 | |
| 20260506171517 | 0 | 0.0 | 0.0 | 0.03 | 0.51 | 0.03 | 96 | 1022.5 | |
| 20260506170517 | 0 | 0.0 | 0.0 | 0.03 | 0.51 | 0.03 | 96 | 1022.3 | |
| 20260506165557 | 0 | 0.0 | 0.0 | 0.03 | 0.51 | 0.03 | 96 | 1022.1 | |
| 20260506164517 | 0 | 0.0 | 0.0 | 0.03 | 0.51 | 0.03 | 96 | 1021.9 | |
| 20260506163517 | 0 | 0.0 | 0.0 | 0.03 | 0.51 | 0.03 | 96 | 1021.7 | |
| 20260506162518 | 0 | 0.0 | 0.0 | 0.03 | 0.51 | 0.03 | 96 | 1021.5 | |
| 20260506161517 | 0 | 0.0 | 0.0 | 0.00 | 0.48 | 0.00 | 96 | 1021.5 | |
| 20260506160537 | 0 | 0.0 | 0.0 | 0.00 | 0.48 | 0.00 | 96 | 1021.6 | |
| 20260506155517 | 0 | 0.0 | 0.0 | 0.00 | 0.48 | 0.00 | 96 | 1021.4 | |
| 20260506154557 | 0 | 0.0 | 0.0 | 0.00 | 0.51 | 0.00 | 96 | 1021.4 | |
| 20260506153517 | 0 | 0.0 | 0.0 | 0.00 | 0.51 | 0.00 | 96 | 1021.4 | |
| 20260506152517 | 0 | 0.0 | 0.0 | 0.00 | 0.51 | 0.00 | 96 | 1021.4 | |
| 20260506151517 | 0 | 0.0 | 0.0 | 0.00 | 0.53 | 0.00 | 96 | 1021.2 | |
| 20260506150517 | 0 | 0.0 | 0.0 | 0.00 | 0.53 | 0.00 | 96 | 1021.1 | |
| 20260506145517 | 0 | 0.0 | 0.0 | 0.00 | 0.53 | 0.00 | 96 | 1020.9 | |
| 20260506144517 | 0 | 0.0 | 0.0 | 0.00 | 0.53 | 0.00 | 96 | 1020.8 | |
| 20260506143517 | 0 | 0.0 | 0.0 | 0.00 | 0.53 | 0.00 | 96 | 1020.8 | |
| 20260506142517 | 0 | 0.0 | 0.0 | 0.00 | 0.56 | 0.00 | 96 | 1020.5 | |
| 20260506141517 | 0 | 0.0 | 0.0 | 0.00 | 0.56 | 0.00 | 96 | 1020.0 | |
| 20260506140518 | 0 | 0.0 | 0.0 | 0.00 | 0.56 | 0.00 | 96 | 1020.0 | |
| 20260506135537 | -1 | 0.0 | 0.0 | 0.00 | 0.58 | 0.00 | 96 | 1020.0 | |
| 20260506134517 | 0 | 0.0 | 0.0 | 0.00 | 0.58 | 0.00 | 96 | 1019.8 | |
| 20260506133517 | -1 | 0.0 | 0.0 | 0.00 | 0.58 | 0.00 | 96 | 1019.7 | |
| 20260506132537 | -1 | 0.0 | 0.0 | 0.00 | 0.58 | 0.00 | 96 | 1019.5 | |
| 20260506131517 | -1 | 0.0 | 0.0 | 0.00 | 0.61 | 0.00 | 96 | 1019.4 | |
| 20260506130517 | -1 | 0.0 | 0.0 | 0.00 | 0.61 | 0.00 | 96 | 1019.3 | |
| 20260506125517 | -1 | 0.0 | 0.0 | 0.00 | 0.61 | 0.00 | 96 | 1018.9 | |
| 20260506124517 | -1 | 0.0 | 0.0 | 0.00 | 0.61 | 0.00 | 95 | 1018.7 | |
| 20260506123517 | -1 | 0.0 | 0.0 | 0.00 | 0.61 | 0.00 | 95 | 1018.6 | |
| 20260506122537 | -1 | 0.0 | 0.0 | 0.00 | 0.61 | 0.00 | 96 | 1018.5 | |
| 20260506121517 | 0 | 0.0 | 0.0 | 0.00 | 0.61 | 0.00 | 96 | 1019.1 | |
| 20260506120517 | -1 | 0.0 | 0.0 | 0.00 | 0.61 | 0.00 | 96 | 1019.0 | |
| 20260506115517 | -1 | 0.0 | 0.0 | 0.00 | 0.64 | 0.00 | 96 | 1019.0 | |
| 20260506114517 | -1 | 0.0 | 0.0 | 0.00 | 0.64 | 0.00 | 96 | 1018.9 | |
| 20260506113517 | -1 | 0.0 | 0.0 | 0.00 | 0.66 | 0.00 | 96 | 1018.7 | |
| 20260506112517 | -1 | 0.0 | 0.0 | 0.00 | 0.66 | 0.00 | 96 | 1018.9 | |
| 20260506111517 | -1 | 0.0 | 0.0 | 0.00 | 0.69 | 0.00 | 87 | 1018.3 | |
| 20260506110517 | -1 | 0.0 | 0.0 | 0.00 | 0.69 | 0.00 | 87 | 1018.3 | |
| 20260506105517 | -1 | 0.0 | 0.0 | 0.00 | 0.69 | 0.00 | 87 | 1018.3 | |
| 20260506104517 | -1 | 0.0 | 0.0 | 0.00 | 0.69 | 0.00 | 87 | 1018.8 | |
| 20260506103517 | -1 | 0.0 | 0.0 | 0.00 | 0.69 | 0.00 | 87 | 1018.7 | |
| 20260506102517 | -1 | 0.0 | 0.0 | 0.00 | 0.69 | 0.00 | 87 | 1018.7 | |
| 20260506101517 | -1 | 0.0 | 0.0 | 0.00 | 0.69 | 0.00 | 87 | 1018.6 | |
| 20260506100517 | -1 | 0.0 | 0.0 | 0.00 | 0.69 | 0.00 | 87 | 1018.6 | |
| 20260506095517 | -1 | 0.0 | 0.0 | 0.00 | 0.69 | 0.00 | 87 | 1018.6 | |
| 20260506094517 | -1 | 0.0 | 0.0 | 0.00 | 0.69 | 0.00 | 87 | 1018.3 | |
| 20260506093517 | -1 | 0.0 | 0.0 | 0.00 | 0.69 | 0.00 | 87 | 1018.2 | |
| 20260506092517 | -1 | 0.0 | 0.0 | 0.00 | 0.69 | 0.00 | 86 | 1018.1 | |
| 20260506091517 | -1 | 0.0 | 0.0 | 0.00 | 0.69 | 0.00 | 86 | 1018.0 | |
| 20260506090517 | -1 | 0.0 | 0.0 | 0.00 | 0.69 | 0.00 | 86 | 1018.0 | |
| 20260506085517 | -1 | 0.0 | 0.0 | 0.00 | 0.69 | 0.00 | 86 | 1017.7 | |
| 20260506084518 | -1 | 0.0 | 0.0 | 0.00 | 0.69 | 0.00 | 96 | 1018.3 | |
| 20260506083517 | 0 | 0.0 | 0.0 | 0.00 | 0.69 | 0.00 | 96 | 1018.4 | |
| 20260506082517 | 0 | 0.0 | 0.0 | 0.00 | 0.69 | 0.00 | 95 | 1018.4 | |
| 20260506081517 | 0 | 0.0 | 0.0 | 0.00 | 0.69 | 0.00 | 95 | 1018.9 | |
| 20260506080517 | 0 | 0.0 | 0.0 | 0.00 | 0.69 | 0.00 | 95 | 1018.9 | |
| 20260506073517 | 0 | 0.0 | 0.0 | 0.00 | 0.69 | 0.00 | 95 | 1018.4 | |
| 20260506072537 | 0 | 0.0 | 0.0 | 0.00 | 0.69 | 0.00 | 95 | 1018.5 | |
| 20260506071557 | 0 | 0.0 | 0.0 | 0.00 | 0.69 | 0.00 | 95 | 1018.2 | |
| 20260506070517 | 0 | 0.0 | 0.0 | 0.00 | 0.69 | 0.00 | 95 | 1018.0 |